sensor_id;sensor_type;location;lat;lon;timestamp;pressure;altitude;pressure_sealevel;temperature;humidity
4149;BME280;2088;51.032;7.082;2022-07-04T00:00:20;48303.78;;;-142.28;86.87
4149;BME280;2088;51.032;7.082;2022-07-04T00:02:47;48307.63;;;-142.28;87.23
4149;BME280;2088;51.032;7.082;2022-07-04T00:05:14;48303.78;;;-142.28;87.72
4149;BME280;2088;51.032;7.082;2022-07-04T00:07:42;48319.25;;;-142.28;88.04
4149;BME280;2088;51.032;7.082;2022-07-04T00:10:11;48309.56;;;-142.28;88.67
4149;BME280;2088;51.032;7.082;2022-07-04T00:12:38;48334.72;;;-142.28;89.04
4149;BME280;2088;51.032;7.082;2022-07-04T00:15:06;48357.97;;;-142.28;89.54
4149;BME280;2088;51.032;7.082;2022-07-04T00:17:34;48342.47;;;-142.28;89.73
4149;BME280;2088;51.032;7.082;2022-07-04T00:20:02;48334.72;;;-142.28;90.00
4149;BME280;2088;51.032;7.082;2022-07-04T00:22:28;48363.75;;;-142.28;91.13
4149;BME280;2088;51.032;7.082;2022-07-04T00:24:55;48381.19;;;-142.28;92.23
4149;BME280;2088;51.032;7.082;2022-07-04T00:27:21;48404.41;;;-142.28;92.94
4149;BME280;2088;51.032;7.082;2022-07-04T00:29:48;48408.28;;;-142.28;93.69
4149;BME280;2088;51.032;7.082;2022-07-04T00:32:14;48406.34;;;-142.28;94.45
4149;BME280;2088;51.032;7.082;2022-07-04T00:34:42;48433.44;;;-142.28;95.41
4149;BME280;2088;51.032;7.082;2022-07-04T00:37:09;48445.03;;;-142.28;95.85
4149;BME280;2088;51.032;7.082;2022-07-04T00:39:35;48431.50;;;-142.28;97.59
4149;BME280;2088;51.032;7.082;2022-07-04T00:42:02;48452.78;;;-142.28;99.56
4149;BME280;2088;51.032;7.082;2022-07-04T00:44:30;48483.75;;;-142.28;100.00
4149;BME280;2088;51.032;7.082;2022-07-04T00:46:57;48495.38;;;-142.28;100.00
4149;BME280;2088;51.032;7.082;2022-07-04T00:49:23;48522.47;;;-142.28;100.00
4149;BME280;2088;51.032;7.082;2022-07-04T00:51:51;48551.50;;;-142.28;100.00
4149;BME280;2088;51.032;7.082;2022-07-04T00:54:18;48551.50;;;-142.28;100.00
4149;BME280;2088;51.032;7.082;2022-07-04T00:56:46;48578.59;;;-142.28;100.00
4149;BME280;2088;51.032;7.082;2022-07-04T00:59:13;48572.78;;;-142.28;100.00
4149;BME280;2088;51.032;7.082;2022-07-04T01:01:39;48603.75;;;-142.28;100.00
4149;BME280;2088;51.032;7.082;2022-07-04T01:04:06;48632.78;;;-142.28;100.00
4149;BME280;2088;51.032;7.082;2022-07-04T01:06:33;48594.06;;;-142.28;100.00
4149;BME280;2088;51.032;7.082;2022-07-04T01:09:01;48630.84;;;-142.28;100.00
4149;BME280;2088;51.032;7.082;2022-07-04T01:11:28;48621.16;;;-142.28;100.00
4149;BME280;2088;51.032;7.082;2022-07-04T01:13:54;48673.44;;;-142.28;100.00
4149;BME280;2088;51.032;7.082;2022-07-04T01:16:21;48686.97;;;-142.28;100.00
4149;BME280;2088;51.032;7.082;2022-07-04T01:18:47;48700.53;;;-142.28;100.00
4149;BME280;2088;51.032;7.082;2022-07-04T01:21:15;48696.66;;;-142.28;100.00
4149;BME280;2088;51.032;7.082;2022-07-04T01:23:42;48727.63;;;-142.28;100.00
4149;BME280;2088;51.032;7.082;2022-07-04T01:26:08;48743.09;;;-142.28;100.00
4149;BME280;2088;51.032;7.082;2022-07-04T01:28:36;48764.41;;;-142.28;100.00
4149;BME280;2088;51.032;7.082;2022-07-04T01:31:02;48774.06;;;-142.28;100.00
4149;BME280;2088;51.032;7.082;2022-07-04T01:33:29;48791.50;;;-142.28;100.00
4149;BME280;2088;51.032;7.082;2022-07-04T01:35:55;48828.28;;;-142.28;100.00
4149;BME280;2088;51.032;7.082;2022-07-04T01:38:23;48830.22;;;-142.28;100.00
4149;BME280;2088;51.032;7.082;2022-07-04T01:40:50;48851.50;;;-142.28;100.00
4149;BME280;2088;51.032;7.082;2022-07-04T01:43:16;48896.03;;;-142.28;100.00
4149;BME280;2088;51.032;7.082;2022-07-04T01:45:43;48888.28;;;-142.28;100.00
4149;BME280;2088;51.032;7.082;2022-07-04T01:48:11;48892.16;;;-142.28;100.00
4149;BME280;2088;51.032;7.082;2022-07-04T01:50:39;48944.41;;;-142.28;100.00
4149;BME280;2088;51.032;7.082;2022-07-04T01:53:05;48952.16;;;-142.28;100.00
4149;BME280;2088;51.032;7.082;2022-07-04T01:55:33;48985.06;;;-142.28;100.00
4149;BME280;2088;51.032;7.082;2022-07-04T01:58:00;49012.16;;;-142.28;100.00
4149;BME280;2088;51.032;7.082;2022-07-04T02:00:27;49004.41;;;-142.28;100.00
4149;BME280;2088;51.032;7.082;2022-07-04T02:03:11;49045.06;;;-142.28;100.00
4149;BME280;2088;51.032;7.082;2022-07-04T02:05:38;49029.59;;;-142.28;100.00
4149;BME280;2088;51.032;7.082;2022-07-04T02:08:04;49054.75;;;-142.28;100.00
4149;BME280;2088;51.032;7.082;2022-07-04T02:10:31;49107.00;;;-142.28;100.00
4149;BME280;2088;51.032;7.082;2022-07-04T02:12:59;49105.06;;;-142.28;100.00
4149;BME280;2088;51.032;7.082;2022-07-04T02:15:29;49132.19;;;-142.28;100.00
4149;BME280;2088;51.032;7.082;2022-07-04T02:17:56;49143.78;;;-142.28;100.00
4149;BME280;2088;51.032;7.082;2022-07-04T02:20:23;49153.47;;;-142.28;100.00
4149;BME280;2088;51.032;7.082;2022-07-04T02:22:49;49186.38;;;-142.28;100.00
4149;BME280;2088;51.032;7.082;2022-07-04T02:25:16;49182.50;;;-142.28;100.00
4149;BME280;2088;51.032;7.082;2022-07-04T02:27:43;49207.69;;;-142.28;100.00
4149;BME280;2088;51.032;7.082;2022-07-04T02:30:11;49242.53;;;-142.28;100.00
4149;BME280;2088;51.032;7.082;2022-07-04T02:32:38;49256.06;;;-142.28;100.00
4149;BME280;2088;51.032;7.082;2022-07-04T02:35:06;49267.69;;;-142.28;100.00
4149;BME280;2088;51.032;7.082;2022-07-04T02:37:33;49261.88;;;-142.28;100.00
4149;BME280;2088;51.032;7.082;2022-07-04T02:39:59;49294.78;;;-142.28;100.00
4149;BME280;2088;51.032;7.082;2022-07-04T02:42:29;49302.53;;;-142.28;100.00
4149;BME280;2088;51.032;7.082;2022-07-04T02:44:56;49387.72;;;-142.28;100.00
4149;BME280;2088;51.032;7.082;2022-07-04T02:47:24;49428.38;;;-142.28;100.00
4149;BME280;2088;51.032;7.082;2022-07-04T02:49:50;49447.72;;;-142.28;100.00
4149;BME280;2088;51.032;7.082;2022-07-04T02:52:17;49496.13;;;-142.28;100.00
4149;BME280;2088;51.032;7.082;2022-07-04T02:54:43;49519.34;;;-142.28;100.00
4149;BME280;2088;51.032;7.082;2022-07-04T02:57:11;49540.66;;;-142.28;100.00
4149;BME280;2088;51.032;7.082;2022-07-04T02:59:37;49523.22;;;-142.28;100.00
4149;BME280;2088;51.032;7.082;2022-07-04T03:02:04;49544.53;;;-142.28;100.00
4149;BME280;2088;51.032;7.082;2022-07-04T03:04:32;49554.19;;;-142.28;100.00
4149;BME280;2088;51.032;7.082;2022-07-04T03:06:58;49538.72;;;-142.28;100.00
4149;BME280;2088;51.032;7.082;2022-07-04T03:09:25;49591.00;;;-142.28;100.00
4149;BME280;2088;51.032;7.082;2022-07-04T03:11:52;49589.06;;;-142.28;100.00
4149;BME280;2088;51.032;7.082;2022-07-04T03:14:19;49604.53;;;-142.28;100.00
4149;BME280;2088;51.032;7.082;2022-07-04T03:16:45;49606.47;;;-142.28;100.00
4149;BME280;2088;51.032;7.082;2022-07-04T03:19:12;49631.66;;;-142.28;100.00
4149;BME280;2088;51.032;7.082;2022-07-04T03:21:40;49656.81;;;-142.28;100.00
4149;BME280;2088;51.032;7.082;2022-07-04T03:24:06;49668.44;;;-142.28;100.00
4149;BME280;2088;51.032;7.082;2022-07-04T03:26:34;49705.22;;;-142.28;100.00
4149;BME280;2088;51.032;7.082;2022-07-04T03:29:01;49755.56;;;-142.28;100.00
4149;BME280;2088;51.032;7.082;2022-07-04T03:31:28;49761.38;;;-142.28;100.00
4149;BME280;2088;51.032;7.082;2022-07-04T03:33:55;49809.78;;;-142.28;100.00
4149;BME280;2088;51.032;7.082;2022-07-04T03:36:22;49848.50;;;-142.28;100.00
4149;BME280;2088;51.032;7.082;2022-07-04T03:38:50;49893.03;;;-142.28;100.00
4149;BME280;2088;51.032;7.082;2022-07-04T03:41:16;49910.44;;;-142.28;100.00
4149;BME280;2088;51.032;7.082;2022-07-04T03:43:42;49906.56;;;-142.28;100.00
4149;BME280;2088;51.032;7.082;2022-07-04T03:46:09;49943.38;;;-142.28;100.00
4149;BME280;2088;51.032;7.082;2022-07-04T03:48:35;49976.28;;;-142.28;100.00
4149;BME280;2088;51.032;7.082;2022-07-04T03:51:02;49995.66;;;-142.28;100.00
4149;BME280;2088;51.032;7.082;2022-07-04T03:53:28;49976.28;;;-142.28;100.00
4149;BME280;2088;51.032;7.082;2022-07-04T03:55:56;49987.91;;;-142.28;100.00
4149;BME280;2088;51.032;7.082;2022-07-04T03:58:23;50015.00;;;-142.28;100.00
4149;BME280;2088;51.032;7.082;2022-07-04T04:00:49;50015.00;;;-142.28;100.00
4149;BME280;2088;51.032;7.082;2022-07-04T04:03:16;50013.06;;;-142.28;100.00
4149;BME280;2088;51.032;7.082;2022-07-04T04:06:00;50057.59;;;-142.28;100.00
4149;BME280;2088;51.032;7.082;2022-07-04T04:08:26;50047.94;;;-142.28;100.00
4149;BME280;2088;51.032;7.082;2022-07-04T04:10:53;50055.66;;;-142.28;100.00
4149;BME280;2088;51.032;7.082;2022-07-04T04:13:20;49972.41;;;-142.28;100.00
4149;BME280;2088;51.032;7.082;2022-07-04T04:15:47;49949.19;;;-142.28;100.00
4149;BME280;2088;51.032;7.082;2022-07-04T04:18:13;49984.03;;;-142.28;100.00
4149;BME280;2088;51.032;7.082;2022-07-04T04:20:40;50001.44;;;-142.28;100.00
4149;BME280;2088;51.032;7.082;2022-07-04T04:23:07;49987.91;;;-142.28;100.00
4149;BME280;2088;51.032;7.082;2022-07-04T04:25:33;49966.59;;;-142.28;100.00
4149;BME280;2088;51.032;7.082;2022-07-04T04:27:59;49968.53;;;-142.28;100.00
4149;BME280;2088;51.032;7.082;2022-07-04T04:30:27;49956.91;;;-142.28;100.00
4149;BME280;2088;51.032;7.082;2022-07-04T04:32:54;49918.19;;;-142.28;100.00
4149;BME280;2088;51.032;7.082;2022-07-04T04:35:20;49883.34;;;-142.28;100.00
4149;BME280;2088;51.032;7.082;2022-07-04T04:37:47;49891.09;;;-142.28;100.00
4149;BME280;2088;51.032;7.082;2022-07-04T04:40:13;49869.78;;;-142.28;100.00
4149;BME280;2088;51.032;7.082;2022-07-04T04:42:40;49836.88;;;-142.28;100.00
4149;BME280;2088;51.032;7.082;2022-07-04T04:45:07;49844.63;;;-142.28;100.00
4149;BME280;2088;51.032;7.082;2022-07-04T04:47:34;49819.44;;;-142.28;100.00
4149;BME280;2088;51.032;7.082;2022-07-04T04:50:01;49761.38;;;-142.28;100.00
4149;BME280;2088;51.032;7.082;2022-07-04T04:52:28;49792.34;;;-142.28;100.00
4149;BME280;2088;51.032;7.082;2022-07-04T04:54:56;49749.75;;;-142.28;100.00
4149;BME280;2088;51.032;7.082;2022-07-04T04:57:22;49743.94;;;-142.28;100.00
4149;BME280;2088;51.032;7.082;2022-07-04T04:59:49;49703.28;;;-142.28;100.00
4149;BME280;2088;51.032;7.082;2022-07-04T05:02:15;49656.81;;;-142.28;100.00
4149;BME280;2088;51.032;7.082;2022-07-04T05:04:43;49672.31;;;-142.28;100.00
4149;BME280;2088;51.032;7.082;2022-07-04T05:07:09;49654.88;;;-142.28;100.00
4149;BME280;2088;51.032;7.082;2022-07-04T05:09:36;49651.00;;;-142.28;100.00
4149;BME280;2088;51.032;7.082;2022-07-04T05:12:03;49625.84;;;-142.28;100.00
4149;BME280;2088;51.032;7.082;2022-07-04T05:14:29;49581.31;;;-142.28;100.00
4149;BME280;2088;51.032;7.082;2022-07-04T05:16:56;49536.78;;;-142.28;100.00
4149;BME280;2088;51.032;7.082;2022-07-04T05:19:22;49484.50;;;-142.28;100.00
4149;BME280;2088;51.032;7.082;2022-07-04T05:21:50;49474.81;;;-142.28;100.00
4149;BME280;2088;51.032;7.082;2022-07-04T05:24:17;49488.38;;;-142.28;100.00
4149;BME280;2088;51.032;7.082;2022-07-04T05:26:43;49453.53;;;-142.28;100.00
4149;BME280;2088;51.032;7.082;2022-07-04T05:29:10;49447.72;;;-142.28;100.00
4149;BME280;2088;51.032;7.082;2022-07-04T05:31:36;49391.59;;;-142.28;100.00
4149;BME280;2088;51.032;7.082;2022-07-04T05:34:03;49379.97;;;-142.28;100.00
4149;BME280;2088;51.032;7.082;2022-07-04T05:36:30;49364.47;;;-142.28;100.00
4149;BME280;2088;51.032;7.082;2022-07-04T05:38:57;49356.72;;;-142.28;100.00
4149;BME280;2088;51.032;7.082;2022-07-04T05:41:24;49393.53;;;-142.28;100.00
4149;BME280;2088;51.032;7.082;2022-07-04T05:43:51;49358.66;;;-142.28;100.00
4149;BME280;2088;51.032;7.082;2022-07-04T05:46:17;49349.00;;;-142.28;100.00
4149;BME280;2088;51.032;7.082;2022-07-04T05:48:43;49306.41;;;-142.28;100.00
4149;BME280;2088;51.032;7.082;2022-07-04T05:51:10;49329.63;;;-142.28;100.00
4149;BME280;2088;51.032;7.082;2022-07-04T05:53:36;49321.88;;;-142.28;100.00
4149;BME280;2088;51.032;7.082;2022-07-04T05:56:05;49319.94;;;-142.28;100.00
4149;BME280;2088;51.032;7.082;2022-07-04T05:58:31;49258.00;;;-142.28;100.00
4149;BME280;2088;51.032;7.082;2022-07-04T06:00:57;49244.44;;;-142.28;100.00
4149;BME280;2088;51.032;7.082;2022-07-04T06:03:24;49246.38;;;-142.28;100.00
4149;BME280;2088;51.032;7.082;2022-07-04T06:05:50;49217.34;;;-142.28;99.79
4149;BME280;2088;51.032;7.082;2022-07-04T06:08:18;49215.41;;;-142.28;99.64
4149;BME280;2088;51.032;7.082;2022-07-04T06:10:45;49149.59;;;-142.28;95.69
4149;BME280;2088;51.032;7.082;2022-07-04T06:13:13;49139.91;;;-142.28;95.81
4149;BME280;2088;51.032;7.082;2022-07-04T06:15:40;49064.44;;;-142.28;93.69
4149;BME280;2088;51.032;7.082;2022-07-04T06:18:06;49081.84;;;-142.28;94.52
4149;BME280;2088;51.032;7.082;2022-07-04T06:20:33;49077.97;;;-142.28;95.14
4149;BME280;2088;51.032;7.082;2022-07-04T06:22:59;49099.28;;;-142.28;95.77
4149;BME280;2088;51.032;7.082;2022-07-04T06:25:26;49108.94;;;-142.28;95.81
4149;BME280;2088;51.032;7.082;2022-07-04T06:27:52;49093.47;;;-142.28;95.25
4149;BME280;2088;51.032;7.082;2022-07-04T06:30:20;49074.09;;;-142.28;95.31
4149;BME280;2088;51.032;7.082;2022-07-04T06:32:49;49074.09;;;-142.28;94.70
4149;BME280;2088;51.032;7.082;2022-07-04T06:35:19;49050.88;;;-142.28;94.43
4149;BME280;2088;51.032;7.082;2022-07-04T06:38:04;49054.75;;;-142.28;93.78
4149;BME280;2088;51.032;7.082;2022-07-04T06:40:30;49035.38;;;-142.28;93.38
4149;BME280;2088;51.032;7.082;2022-07-04T06:42:57;49019.91;;;-142.28;91.93
4149;BME280;2088;51.032;7.082;2022-07-04T06:45:25;49048.94;;;-142.28;92.44
4149;BME280;2088;51.032;7.082;2022-07-04T06:47:52;49006.34;;;-142.28;92.12
4149;BME280;2088;51.032;7.082;2022-07-04T06:50:18;48994.75;;;-142.28;91.21
4149;BME280;2088;51.032;7.082;2022-07-04T06:52:45;48985.06;;;-142.28;90.38
4149;BME280;2088;51.032;7.082;2022-07-04T06:55:12;48961.84;;;-142.28;87.59
4149;BME280;2088;51.032;7.082;2022-07-04T06:57:39;48899.91;;;-142.28;87.19
4149;BME280;2088;51.032;7.082;2022-07-04T07:00:07;48907.63;;;-142.28;86.05
4149;BME280;2088;51.032;7.082;2022-07-04T07:02:35;48923.13;;;-142.28;87.78
4149;BME280;2088;51.032;7.082;2022-07-04T07:05:03;48901.81;;;-142.28;88.06
4149;BME280;2088;51.032;7.082;2022-07-04T07:07:30;48938.59;;;-142.28;87.65
4149;BME280;2088;51.032;7.082;2022-07-04T07:09:56;48901.81;;;-142.28;86.77
4149;BME280;2088;51.032;7.082;2022-07-04T07:12:23;48849.56;;;-142.28;82.96
4149;BME280;2088;51.032;7.082;2022-07-04T07:14:50;48779.88;;;-142.28;79.51
4149;BME280;2088;51.032;7.082;2022-07-04T07:17:17;48752.78;;;-142.28;78.14
4149;BME280;2088;51.032;7.082;2022-07-04T07:19:45;48739.25;;;-142.28;78.44
4149;BME280;2088;51.032;7.082;2022-07-04T07:22:12;48745.03;;;-142.28;79.62
4149;BME280;2088;51.032;7.082;2022-07-04T07:24:39;48702.47;;;-142.28;79.81
4149;BME280;2088;51.032;7.082;2022-07-04T07:27:06;48667.63;;;-142.28;75.96
4149;BME280;2088;51.032;7.082;2022-07-04T07:29:34;48667.63;;;-142.28;76.00
4149;BME280;2088;51.032;7.082;2022-07-04T07:32:01;48646.34;;;-142.28;76.72
4149;BME280;2088;51.032;7.082;2022-07-04T07:34:28;48661.81;;;-142.28;79.26
4149;BME280;2088;51.032;7.082;2022-07-04T07:36:56;48696.66;;;-142.28;79.53
4149;BME280;2088;51.032;7.082;2022-07-04T07:39:22;48665.69;;;-142.28;78.11
4149;BME280;2088;51.032;7.082;2022-07-04T07:41:49;48665.69;;;-142.28;77.81
4149;BME280;2088;51.032;7.082;2022-07-04T07:44:15;48642.47;;;-142.28;76.69
4149;BME280;2088;51.032;7.082;2022-07-04T07:46:42;48628.91;;;-142.28;76.43
4149;BME280;2088;51.032;7.082;2022-07-04T07:49:08;48628.91;;;-142.28;75.60
4149;BME280;2088;51.032;7.082;2022-07-04T07:51:35;48640.53;;;-142.28;75.23
4149;BME280;2088;51.032;7.082;2022-07-04T07:54:03;48642.47;;;-142.28;75.91
4149;BME280;2088;51.032;7.082;2022-07-04T07:56:29;48609.56;;;-142.28;75.91
4149;BME280;2088;51.032;7.082;2022-07-04T07:58:56;48648.28;;;-142.28;76.16
4149;BME280;2088;51.032;7.082;2022-07-04T08:01:22;48570.84;;;-142.28;74.13
4149;BME280;2088;51.032;7.082;2022-07-04T08:03:49;48528.28;;;-142.28;69.12
4149;BME280;2088;51.032;7.082;2022-07-04T08:06:33;48522.47;;;-142.28;68.38
4149;BME280;2088;51.032;7.082;2022-07-04T08:09:00;48518.59;;;-142.28;70.02
4149;BME280;2088;51.032;7.082;2022-07-04T08:11:28;48524.41;;;-142.28;71.21
4149;BME280;2088;51.032;7.082;2022-07-04T08:13:55;48524.41;;;-142.28;71.10
4149;BME280;2088;51.032;7.082;2022-07-04T08:16:22;48497.31;;;-142.28;69.35
4149;BME280;2088;51.032;7.082;2022-07-04T08:18:49;48493.44;;;-142.28;70.12
4149;BME280;2088;51.032;7.082;2022-07-04T08:21:15;48466.34;;;-142.28;69.12
4149;BME280;2088;51.032;7.082;2022-07-04T08:23:42;48485.69;;;-142.28;69.82
4149;BME280;2088;51.032;7.082;2022-07-04T08:26:08;48468.28;;;-142.28;68.75
4149;BME280;2088;51.032;7.082;2022-07-04T08:28:36;48481.81;;;-142.28;69.45
4149;BME280;2088;51.032;7.082;2022-07-04T08:31:03;48477.94;;;-142.28;69.29
4149;BME280;2088;51.032;7.082;2022-07-04T08:33:29;48452.78;;;-142.28;65.58
4149;BME280;2088;51.032;7.082;2022-07-04T08:35:56;48417.94;;;-142.28;65.85
4149;BME280;2088;51.032;7.082;2022-07-04T08:38:23;48417.94;;;-142.28;64.16
4149;BME280;2088;51.032;7.082;2022-07-04T08:40:51;48398.59;;;-142.28;64.05
4149;BME280;2088;51.032;7.082;2022-07-04T08:43:23;48406.34;;;-142.28;64.50
4149;BME280;2088;51.032;7.082;2022-07-04T08:45:53;48419.88;;;-142.28;64.08
4149;BME280;2088;51.032;7.082;2022-07-04T08:48:23;48365.69;;;-142.28;62.80
4149;BME280;2088;51.032;7.082;2022-07-04T08:50:55;48323.13;;;-142.28;60.36
4149;BME280;2088;51.032;7.082;2022-07-04T08:53:26;48315.38;;;-142.28;59.55
4149;BME280;2088;51.032;7.082;2022-07-04T08:55:54;48369.56;;;-142.28;62.94
4149;BME280;2088;51.032;7.082;2022-07-04T08:58:39;48327.00;;;-142.28;60.27
4149;BME280;2088;51.032;7.082;2022-07-04T09:01:08;48288.28;;;-142.28;60.14
4149;BME280;2088;51.032;7.082;2022-07-04T09:03:40;48313.44;;;-142.28;62.02
4149;BME280;2088;51.032;7.082;2022-07-04T09:06:07;48311.50;;;-142.28;60.03
4149;BME280;2088;51.032;7.082;2022-07-04T09:08:33;48323.13;;;-142.28;61.83
4149;BME280;2088;51.032;7.082;2022-07-04T09:11:00;48261.19;;;-142.28;59.57
4149;BME280;2088;51.032;7.082;2022-07-04T09:13:29;48265.06;;;-142.28;59.18
4149;BME280;2088;51.032;7.082;2022-07-04T09:15:56;48245.72;;;-142.28;57.58
4149;BME280;2088;51.032;7.082;2022-07-04T09:18:26;48237.97;;;-142.28;56.32
4149;BME280;2088;51.032;7.082;2022-07-04T09:20:53;48230.22;;;-142.28;54.97
4149;BME280;2088;51.032;7.082;2022-07-04T09:23:21;48222.47;;;-142.28;55.34
4149;BME280;2088;51.032;7.082;2022-07-04T09:25:49;48176.03;;;-142.28;52.75
4149;BME280;2088;51.032;7.082;2022-07-04T09:28:26;48203.13;;;-142.28;52.01
4149;BME280;2088;51.032;7.082;2022-07-04T09:30:53;48214.75;;;-142.28;52.59
4149;BME280;2088;51.032;7.082;2022-07-04T09:33:20;48183.78;;;-142.28;51.88
4149;BME280;2088;51.032;7.082;2022-07-04T09:35:48;48203.13;;;-142.28;52.01
4149;BME280;2088;51.032;7.082;2022-07-04T09:38:22;48210.88;;;-142.28;52.95
4149;BME280;2088;51.032;7.082;2022-07-04T09:40:52;48199.25;;;-142.28;53.70
4149;BME280;2088;51.032;7.082;2022-07-04T09:43:36;48203.13;;;-142.28;53.77
4149;BME280;2088;51.032;7.082;2022-07-04T09:46:03;48177.97;;;-142.28;52.61
4149;BME280;2088;51.032;7.082;2022-07-04T09:48:48;48203.13;;;-142.28;49.54
4149;BME280;2088;51.032;7.082;2022-07-04T09:51:35;48199.25;;;-142.28;47.96
4149;BME280;2088;51.032;7.082;2022-07-04T09:54:12;48191.53;;;-142.28;48.23
4149;BME280;2088;51.032;7.082;2022-07-04T09:56:39;48162.50;;;-142.28;47.14
4149;BME280;2088;51.032;7.082;2022-07-04T09:59:06;48162.50;;;-142.28;46.42
4149;BME280;2088;51.032;7.082;2022-07-04T10:01:32;48139.28;;;-142.28;45.97
4149;BME280;2088;51.032;7.082;2022-07-04T10:03:59;48145.06;;;-142.28;45.09
4149;BME280;2088;51.032;7.082;2022-07-04T10:06:31;48127.66;;;-142.28;43.72
4149;BME280;2088;51.032;7.082;2022-07-04T10:09:06;48110.25;;;-142.28;44.53
4149;BME280;2088;51.032;7.082;2022-07-04T10:11:33;48094.75;;;-142.28;42.40
4149;BME280;2088;51.032;7.082;2022-07-04T10:14:02;48090.88;;;-142.28;42.83
4149;BME280;2088;51.032;7.082;2022-07-04T10:16:30;48108.31;;;-142.28;44.69
4149;BME280;2088;51.032;7.082;2022-07-04T10:18:57;48083.16;;;-142.28;42.06
4149;BME280;2088;51.032;7.082;2022-07-04T10:21:24;48079.28;;;-142.28;44.04
4149;BME280;2088;51.032;7.082;2022-07-04T10:23:52;48079.28;;;-142.28;41.88
4149;BME280;2088;51.032;7.082;2022-07-04T10:26:19;48090.88;;;-142.28;42.51
4149;BME280;2088;51.032;7.082;2022-07-04T10:28:46;48083.16;;;-142.28;43.02
4149;BME280;2088;51.032;7.082;2022-07-04T10:31:14;48058.00;;;-142.28;43.35
4149;BME280;2088;51.032;7.082;2022-07-04T10:33:42;48087.03;;;-142.28;43.21
4149;BME280;2088;51.032;7.082;2022-07-04T10:36:14;48067.66;;;-142.28;42.58
4149;BME280;2088;51.032;7.082;2022-07-04T10:38:47;48081.22;;;-142.28;44.62
4149;BME280;2088;51.032;7.082;2022-07-04T10:41:15;48079.28;;;-142.28;43.55
4149;BME280;2088;51.032;7.082;2022-07-04T10:43:54;48088.97;;;-142.28;42.88
4149;BME280;2088;51.032;7.082;2022-07-04T10:46:23;48061.88;;;-142.28;42.92
4149;BME280;2088;51.032;7.082;2022-07-04T10:48:50;48085.09;;;-142.28;43.65
4149;BME280;2088;51.032;7.082;2022-07-04T10:51:31;48112.19;;;-142.28;43.82
4149;BME280;2088;51.032;7.082;2022-07-04T10:54:00;48075.41;;;-142.28;43.73
4149;BME280;2088;51.032;7.082;2022-07-04T10:56:35;48075.41;;;-142.28;42.35
4149;BME280;2088;51.032;7.082;2022-07-04T10:59:07;48059.94;;;-142.28;42.06
4149;BME280;2088;51.032;7.082;2022-07-04T11:01:34;48071.53;;;-142.28;41.98
4149;BME280;2088;51.032;7.082;2022-07-04T11:04:00;48058.00;;;-142.28;41.86
4149;BME280;2088;51.032;7.082;2022-07-04T11:06:51;48071.53;;;-142.28;39.99
4149;BME280;2088;51.032;7.082;2022-07-04T11:09:22;48044.44;;;-142.28;39.52
4149;BME280;2088;51.032;7.082;2022-07-04T11:11:56;48052.19;;;-142.28;41.42
4149;BME280;2088;51.032;7.082;2022-07-04T11:14:31;48061.88;;;-142.28;40.57
4149;BME280;2088;51.032;7.082;2022-07-04T11:16:58;48063.78;;;-142.28;41.04
4149;BME280;2088;51.032;7.082;2022-07-04T11:19:25;48052.19;;;-142.28;41.47
4149;BME280;2088;51.032;7.082;2022-07-04T11:21:53;48038.63;;;-142.28;41.46
4149;BME280;2088;51.032;7.082;2022-07-04T11:24:20;48046.38;;;-142.28;42.49
4149;BME280;2088;51.032;7.082;2022-07-04T11:26:47;48063.78;;;-142.28;42.01
4149;BME280;2088;51.032;7.082;2022-07-04T11:29:15;48061.88;;;-142.28;42.80
4149;BME280;2088;51.032;7.082;2022-07-04T11:31:43;48040.56;;;-142.28;41.80
4149;BME280;2088;51.032;7.082;2022-07-04T11:34:10;48056.06;;;-142.28;41.05
4149;BME280;2088;51.032;7.082;2022-07-04T11:36:38;48063.78;;;-142.28;42.18
4149;BME280;2088;51.032;7.082;2022-07-04T11:39:06;48052.19;;;-142.28;41.04
4149;BME280;2088;51.032;7.082;2022-07-04T11:41:35;48067.66;;;-142.28;41.16
4149;BME280;2088;51.032;7.082;2022-07-04T11:44:22;48040.56;;;-142.28;39.65
4149;BME280;2088;51.032;7.082;2022-07-04T11:47:11;48040.56;;;-142.28;39.04
4149;BME280;2088;51.032;7.082;2022-07-04T11:49:45;48013.47;;;-142.28;37.02
4149;BME280;2088;51.032;7.082;2022-07-04T11:52:12;48021.22;;;-142.28;35.14
4149;BME280;2088;51.032;7.082;2022-07-04T11:54:40;48061.88;;;-142.28;37.33
4149;BME280;2088;51.032;7.082;2022-07-04T11:57:11;48036.72;;;-142.28;35.54
4149;BME280;2088;51.032;7.082;2022-07-04T11:59:40;48017.34;;;-142.28;32.85
4149;BME280;2088;51.032;7.082;2022-07-04T12:02:14;48009.63;;;-142.28;31.23
4149;BME280;2088;51.032;7.082;2022-07-04T12:04:42;48009.63;;;-142.28;30.35
4149;BME280;2088;51.032;7.082;2022-07-04T12:07:10;47982.53;;;-142.28;29.23
4149;BME280;2088;51.032;7.082;2022-07-04T12:09:37;47988.31;;;-142.28;27.91
4149;BME280;2088;51.032;7.082;2022-07-04T12:12:04;47994.13;;;-142.28;28.88
4149;BME280;2088;51.032;7.082;2022-07-04T12:14:31;48005.75;;;-142.28;28.17
4149;BME280;2088;51.032;7.082;2022-07-04T12:17:14;47990.25;;;-142.28;27.60
4149;BME280;2088;51.032;7.082;2022-07-04T12:19:54;47990.25;;;-142.28;27.08
4149;BME280;2088;51.032;7.082;2022-07-04T12:22:29;47990.25;;;-142.28;29.12
4149;BME280;2088;51.032;7.082;2022-07-04T12:24:56;47930.28;;;-142.28;29.74
4149;BME280;2088;51.032;7.082;2022-07-04T12:27:23;47996.06;;;-142.28;29.67
4149;BME280;2088;51.032;7.082;2022-07-04T12:29:51;47986.41;;;-142.28;28.06
4149;BME280;2088;51.032;7.082;2022-07-04T12:32:20;47986.41;;;-142.28;26.79
4149;BME280;2088;51.032;7.082;2022-07-04T12:34:47;47943.81;;;-142.28;25.91
4149;BME280;2088;51.032;7.082;2022-07-04T12:37:15;47984.47;;;-142.28;26.59
4149;BME280;2088;51.032;7.082;2022-07-04T12:39:43;47938.00;;;-142.28;26.54
4149;BME280;2088;51.032;7.082;2022-07-04T12:42:11;47932.22;;;-142.28;26.33
4149;BME280;2088;51.032;7.082;2022-07-04T12:44:39;47953.50;;;-142.28;25.62
4149;BME280;2088;51.032;7.082;2022-07-04T12:47:07;47992.19;;;-142.28;25.13
4149;BME280;2088;51.032;7.082;2022-07-04T12:49:35;47955.44;;;-142.28;25.85
4149;BME280;2088;51.032;7.082;2022-07-04T12:52:08;47932.22;;;-142.28;24.51
4149;BME280;2088;51.032;7.082;2022-07-04T12:54:35;47955.44;;;-142.28;24.41
4149;BME280;2088;51.032;7.082;2022-07-04T12:57:04;47903.19;;;-142.28;23.83
4149;BME280;2088;51.032;7.082;2022-07-04T12:59:31;47967.03;;;-142.28;24.63